Time;durP1;ratioP1;P1;durP2;ratioP2;P2;SDS_P1;SDS_P2;PMS_P1;PMS_P2;Temp;Humidity;BMP_temperature;BMP_pressure;BME280_temperature;BME280_humidity;BME280_pressure;Samples;Min_cycle;Max_cycle;Signal;HPM_P1;HPM_P2
2021/12/11 00:01:55;;;;;;;40.70;23.13;;;5.90;99.90;;;;;;4982703;28;39002;-78
2021/12/11 00:04:31;;;;;;;30.87;20.30;;;6.00;99.90;;;;;;4985720;28;39243;-78
2021/12/11 00:07:02;;;;;;;27.37;18.00;;;6.00;99.90;;;;;;4983587;28;37190;-78
2021/12/11 00:09:33;;;;;;;30.43;21.33;;;6.00;99.90;;;;;;4963824;28;47736;-77
2021/12/11 00:12:13;;;;;;;32.77;20.93;;;6.00;99.90;;;;;;4981082;28;39186;-78
2021/12/11 00:14:42;;;;;;;32.53;21.33;;;6.00;99.90;;;;;;4979914;28;47194;-78
2021/12/11 00:17:09;;;;;;;78.67;32.77;;;6.00;99.90;;;;;;4978601;28;37998;-78
2021/12/11 00:19:39;;;;;;;57.07;27.70;;;6.10;99.90;;;;;;4981762;28;36936;-79
2021/12/11 00:22:16;;;;;;;56.17;28.80;;;6.10;99.90;;;;;;4961808;28;39435;-78
2021/12/11 00:24:42;;;;;;;36.00;23.23;;;6.10;99.90;;;;;;4979884;28;39045;-78
2021/12/11 00:27:16;;;;;;;42.00;23.47;;;6.00;99.90;;;;;;4978302;28;38478;-78
2021/12/11 00:29:42;;;;;;;41.90;22.93;;;6.00;99.90;;;;;;4970415;28;38449;-78
2021/12/11 00:32:12;;;;;;;44.60;24.93;;;6.00;99.90;;;;;;4987153;28;38438;-78
2021/12/11 00:34:43;;;;;;;41.97;23.53;;;6.00;99.90;;;;;;4981941;28;38460;-78
2021/12/11 00:37:11;;;;;;;47.50;25.40;;;6.10;99.90;;;;;;4975108;28;39906;-78
2021/12/11 00:39:55;;;;;;;38.27;22.70;;;6.10;99.90;;;;;;4970121;28;36642;-78
2021/12/11 00:42:24;;;;;;;42.47;23.40;;;6.00;99.90;;;;;;4980483;28;38714;-78
2021/12/11 00:44:54;;;;;;;38.77;23.03;;;6.00;99.90;;;;;;4979540;28;40520;-78
2021/12/11 00:47:27;;;;;;;38.80;23.03;;;6.10;99.90;;;;;;4963953;28;38444;-78
2021/12/11 00:50:01;;;;;;;50.47;25.47;;;6.10;99.90;;;;;;4981930;28;37322;-78
2021/12/11 00:52:32;;;;;;;44.97;25.17;;;6.10;99.90;;;;;;4980778;28;49043;-78
2021/12/11 00:55:00;;;;;;;34.07;21.80;;;6.10;99.90;;;;;;4981874;28;37081;-78
2021/12/11 00:57:26;;;;;;;49.27;28.07;;;6.10;99.90;;;;;;4965415;28;38700;-78
2021/12/11 01:00:01;;;;;;;32.63;20.87;;;6.10;99.90;;;;;;4964330;28;38537;-78
2021/12/11 01:02:27;;;;;;;37.83;23.83;;;6.10;99.90;;;;;;4984955;28;46867;-78
2021/12/11 01:04:53;;;;;;;54.03;26.43;;;6.10;99.90;;;;;;4977373;28;38121;-78
2021/12/11 01:07:22;;;;;;;37.30;22.20;;;6.10;99.90;;;;;;4979668;28;39338;-78
2021/12/11 01:09:56;;;;;;;38.33;23.27;;;6.00;99.90;;;;;;4980248;28;37527;-78
2021/12/11 01:12:45;;;;;;;35.73;22.03;;;6.00;99.90;;;;;;4961375;28;39353;-77
2021/12/11 01:15:36;;;;;;;42.50;24.20;;;6.00;99.90;;;;;;4966529;28;37548;-77
2021/12/11 01:21:08;;;;;;;43.10;21.87;;;6.00;99.90;;;;;;4984213;28;38106;-77
2021/12/11 01:26:09;;;;;;;33.10;20.15;;;6.00;99.90;;;;;;4988516;28;38567;-78
2021/12/11 01:28:37;;;;;;;47.70;25.70;;;5.90;99.90;;;;;;4970581;28;38161;-79
2021/12/11 01:31:08;;;;;;;40.20;23.90;;;5.90;99.90;;;;;;4970481;28;36273;-78
2021/12/11 01:33:34;;;;;;;35.63;22.47;;;5.90;99.90;;;;;;4979215;28;38903;-78
2021/12/11 01:36:02;;;;;;;46.97;26.13;;;6.00;99.90;;;;;;4969096;28;38236;-78
2021/12/11 01:38:30;;;;;;;32.47;20.73;;;6.00;99.90;;;;;;4969891;28;47373;-78
2021/12/11 01:41:00;;;;;;;29.57;20.43;;;6.00;99.90;;;;;;4981528;28;38346;-78
2021/12/11 01:43:29;;;;;;;41.93;23.40;;;5.90;99.90;;;;;;4982303;28;47362;-77
2021/12/11 01:45:57;;;;;;;61.87;27.87;;;5.90;99.90;;;;;;4983714;28;39048;-78
2021/12/11 01:48:28;;;;;;;50.40;25.30;;;5.90;99.90;;;;;;4964325;28;37574;-78
2021/12/11 01:51:05;;;;;;;37.97;22.27;;;5.80;99.90;;;;;;4981142;28;36584;-78
2021/12/11 01:53:36;;;;;;;28.70;19.53;;;5.70;99.90;;;;;;4978802;28;48184;-78
2021/12/11 01:56:14;;;;;;;33.13;19.97;;;5.60;99.90;;;;;;4979342;28;37197;-78
2021/12/11 01:58:47;;;;;;;46.50;24.67;;;5.50;99.90;;;;;;4980604;28;38304;-78
2021/12/11 02:01:28;;;;;;;44.80;24.50;;;5.40;99.90;;;;;;4968220;28;35304;-78
2021/12/11 02:03:56;;;;;;;39.97;23.87;;;5.40;99.90;;;;;;4983873;28;38785;-78
2021/12/11 02:06:34;;;;;;;36.00;21.40;;;5.40;99.90;;;;;;4981760;28;37971;-78
2021/12/11 02:09:37;;;;;;;61.47;26.37;;;5.40;99.90;;;;;;4963891;28;40418;-78
2021/12/11 02:12:17;;;;;;;37.95;22.15;;;5.30;99.90;;;;;;4973357;28;47298;-78
2021/12/11 02:14:48;;;;;;;58.53;28.30;;;5.10;99.90;;;;;;4965696;28;38307;-78
2021/12/11 02:17:20;;;;;;;41.67;23.10;;;5.10;99.90;;;;;;4957152;28;38448;-78
2021/12/11 02:19:49;;;;;;;63.20;28.70;;;5.00;99.90;;;;;;4959958;28;37711;-78
2021/12/11 02:22:19;;;;;;;48.60;25.30;;;5.00;99.90;;;;;;4959241;28;36694;-78
2021/12/11 02:24:54;;;;;;;34.33;21.73;;;5.10;99.90;;;;;;4976041;28;38574;-78
2021/12/11 02:27:32;;;;;;;51.30;26.60;;;5.20;99.90;;;;;;4977323;28;39062;-77
2021/12/11 02:30:24;;;;;;;46.43;25.47;;;5.30;99.90;;;;;;4979536;28;38876;-77
2021/12/11 02:32:58;;;;;;;77.47;30.93;;;5.40;99.90;;;;;;4944409;28;47399;-77
2021/12/11 02:35:32;;;;;;;38.70;23.27;;;5.50;99.90;;;;;;4963508;28;38575;-79
2021/12/11 02:38:11;;;;;;;54.10;27.27;;;5.50;99.90;;;;;;4970618;28;37977;-78
2021/12/11 02:40:57;;;;;;;75.53;32.30;;;5.50;99.90;;;;;;4962363;28;47363;-77
2021/12/11 02:43:31;;;;;;;53.33;26.63;;;5.50;99.90;;;;;;4962602;28;36975;-77
2021/12/11 02:46:04;;;;;;;63.40;29.17;;;5.50;99.90;;;;;;4975985;28;38525;-77
2021/12/11 02:48:45;;;;;;;54.47;27.52;;;5.50;99.90;;;;;;4956907;28;47431;-77
2021/12/11 02:51:34;;;;;;;56.67;27.90;;;5.50;99.90;;;;;;4971765;28;38545;-77
2021/12/11 02:54:09;;;;;;;52.97;26.37;;;5.50;99.90;;;;;;4979024;28;37289;-77
2021/12/11 02:56:42;;;;;;;82.70;30.73;;;5.40;99.90;;;;;;4964577;28;47285;-78
2021/12/11 02:59:15;;;;;;;49.53;24.80;;;5.40;99.90;;;;;;4964615;28;37401;-77
2021/12/11 03:01:51;;;;;;;78.35;31.45;;;5.40;99.90;;;;;;4950316;28;36961;-78
2021/12/11 03:04:31;;;;;;;41.80;24.23;;;5.40;99.90;;;;;;4940602;28;37734;-77
2021/12/11 03:06:59;;;;;;;42.10;23.37;;;5.50;99.90;;;;;;4950015;28;38869;-79
2021/12/11 03:09:29;;;;;;;52.83;28.03;;;5.50;99.90;;;;;;4953466;28;37707;-78
2021/12/11 03:12:00;;;;;;;36.60;22.63;;;5.60;99.90;;;;;;4958022;28;37877;-78
2021/12/11 03:14:27;;;;;;;66.13;30.67;;;5.60;99.90;;;;;;4958647;28;36514;-78
2021/12/11 03:16:56;;;;;;;39.07;23.43;;;5.70;99.90;;;;;;4938632;28;37770;-78
2021/12/11 03:19:29;;;;;;;68.27;30.43;;;5.70;99.90;;;;;;4958104;28;38307;-78
2021/12/11 03:21:58;;;;;;;47.67;24.73;;;5.70;99.90;;;;;;4952203;28;38753;-78
2021/12/11 03:24:26;;;;;;;60.80;29.07;;;5.80;99.90;;;;;;4943637;28;38299;-77
2021/12/11 03:26:53;;;;;;;77.47;31.53;;;5.80;99.90;;;;;;4949284;28;37644;-77
2021/12/11 03:29:20;;;;;;;68.33;30.00;;;5.80;99.90;;;;;;4969006;28;37462;-78
2021/12/11 03:31:47;;;;;;;44.20;24.67;;;5.80;99.90;;;;;;4989974;28;38425;-78
2021/12/11 03:34:18;;;;;;;33.33;21.27;;;5.70;99.90;;;;;;4961935;28;36416;-77
2021/12/11 03:36:45;;;;;;;40.53;21.60;;;5.60;99.90;;;;;;4951761;28;37978;-78
2021/12/11 03:39:33;;;;;;;43.77;24.73;;;5.50;99.90;;;;;;4978003;28;39127;-78
2021/12/11 03:42:03;;;;;;;44.53;23.83;;;5.40;99.90;;;;;;4962543;28;36907;-77
2021/12/11 03:44:33;;;;;;;34.73;21.27;;;5.40;99.90;;;;;;4972371;28;47737;-78
2021/12/11 03:47:04;;;;;;;40.00;23.27;;;5.40;99.90;;;;;;4974119;28;37767;-77
2021/12/11 03:49:31;;;;;;;40.83;22.73;;;5.30;99.90;;;;;;4944928;28;47374;-78
2021/12/11 03:51:57;;;;;;;36.30;22.47;;;5.40;99.90;;;;;;4963229;28;35826;-78
2021/12/11 03:54:32;;;;;;;37.33;22.93;;;5.40;99.90;;;;;;4978142;28;36203;-78
2021/12/11 03:56:59;;;;;;;39.57;24.03;;;5.50;99.90;;;;;;4977473;28;39014;-79
2021/12/11 03:59:26;;;;;;;49.07;26.63;;;5.50;99.90;;;;;;4966225;28;36306;-78
2021/12/11 04:01:56;;;;;;;53.63;26.80;;;5.40;99.90;;;;;;4948430;28;38114;-78
2021/12/11 04:04:26;;;;;;;37.23;22.17;;;5.30;99.90;;;;;;4965328;28;37386;-78
2021/12/11 04:06:54;;;;;;;46.67;25.07;;;5.20;99.90;;;;;;4973696;28;40912;-78
2021/12/11 04:09:20;;;;;;;56.70;27.00;;;5.10;99.90;;;;;;4973957;28;38283;-78
2021/12/11 04:11:48;;;;;;;61.17;27.63;;;5.00;99.90;;;;;;4972985;28;37171;-78
2021/12/11 04:14:19;;;;;;;47.70;25.47;;;5.00;99.90;;;;;;4975366;28;36717;-77
2021/12/11 04:16:46;;;;;;;56.13;29.27;;;5.00;99.90;;;;;;4979783;28;39688;-78
2021/12/11 04:19:13;;;;;;;45.73;24.83;;;4.90;99.90;;;;;;4976031;28;38448;-77
2021/12/11 04:21:41;;;;;;;52.93;27.43;;;4.80;99.90;;;;;;4963433;28;38447;-78
2021/12/11 04:24:09;;;;;;;55.70;27.83;;;4.70;99.90;;;;;;4976933;28;38082;-77
2021/12/11 04:26:36;;;;;;;75.53;30.83;;;4.60;99.90;;;;;;4979535;28;37719;-78
2021/12/11 04:29:04;;;;;;;66.53;28.70;;;4.50;99.90;;;;;;4961908;28;37844;-76
2021/12/11 04:31:32;;;;;;;41.67;24.10;;;4.40;99.90;;;;;;4977308;28;38677;-77
2021/12/11 04:34:07;;;;;;;35.70;21.13;;;4.30;99.90;;;;;;4976509;28;37007;-77
2021/12/11 04:36:40;;;;;;;51.27;25.33;;;4.30;99.90;;;;;;4954102;28;46785;-77
2021/12/11 04:39:10;;;;;;;66.60;29.53;;;4.60;99.90;;;;;;4961334;28;38330;-77
2021/12/11 04:41:49;;;;;;;64.53;27.93;;;4.50;99.90;;;;;;4978297;28;38236;-77
2021/12/11 04:44:25;;;;;;;44.73;24.33;;;4.30;99.90;;;;;;4964766;28;36549;-77
2021/12/11 04:46:52;;;;;;;41.60;22.07;;;4.30;99.90;;;;;;4966701;28;40828;-78
2021/12/11 04:49:45;;;;;;;38.97;22.63;;;4.40;99.90;;;;;;4980092;28;39129;-77
2021/12/11 04:52:28;;;;;;;;;;;4.50;99.90;;;;;;4980639;28;39227;-77
2021/12/11 05:00:27;;;;;;;18.77;3.23;;;6.00;99.90;;;;;;4979791;28;40380;-77
2021/12/11 05:03:15;;;;;;;17.50;2.63;;;6.10;99.90;;;;;;4976796;28;38181;-77
2021/12/11 05:10:54;;;;;;;11.77;2.43;;;6.30;99.90;;;;;;4983407;28;38763;-77
2021/12/11 05:13:23;;;;;;;18.50;3.03;;;6.30;99.90;;;;;;4982289;28;38733;-77
2021/12/11 05:15:51;;;;;;;18.17;2.70;;;6.20;99.90;;;;;;4979999;28;36954;-77
2021/12/11 05:18:22;;;;;;;21.47;3.50;;;6.30;99.90;;;;;;4964090;28;41179;-77
2021/12/11 05:20:53;;;;;;;18.67;5.20;;;6.40;99.90;;;;;;4977191;28;38299;-78
2021/12/11 05:23:20;;;;;;;19.83;5.30;;;6.40;99.90;;;;;;4980976;28;39199;-78
2021/12/11 05:25:46;;;;;;;17.13;5.37;;;6.40;99.90;;;;;;4978650;28;37900;-78
2021/12/11 05:28:13;;;;;;;18.10;5.50;;;6.40;99.90;;;;;;4966550;28;39409;-78
2021/12/11 05:30:46;;;;;;;18.30;4.43;;;6.60;99.90;;;;;;4974705;28;40262;-78
2021/12/11 05:33:13;;;;;;;19.65;3.80;;;6.70;99.90;;;;;;4979662;28;38654;-78
2021/12/11 05:35:41;;;;;;;22.00;4.30;;;6.80;99.90;;;;;;4981234;28;37021;-78
2021/12/11 05:38:09;;;;;;;26.13;4.00;;;7.00;99.90;;;;;;4968235;28;38479;-78
2021/12/11 05:40:40;;;;;;;21.00;3.00;;;7.20;99.90;;;;;;4971226;28;38885;-78
2021/12/11 05:43:07;;;;;;;21.37;3.60;;;7.40;99.90;;;;;;4974189;28;36790;-78
2021/12/11 05:45:33;;;;;;;18.67;2.97;;;7.50;99.90;;;;;;4972871;28;37638;-78
2021/12/11 05:48:00;;;;;;;20.53;3.60;;;7.50;99.90;;;;;;4985700;28;38681;-78
2021/12/11 05:50:36;;;;;;;21.57;2.70;;;7.60;99.90;;;;;;4983193;28;40858;-78
2021/12/11 05:53:03;;;;;;;31.57;2.90;;;7.70;99.90;;;;;;4978252;28;38539;-76
2021/12/11 05:55:31;;;;;;;16.83;2.57;;;7.60;99.90;;;;;;4982465;28;38618;-77
2021/12/11 05:58:02;;;;;;;15.37;2.50;;;7.80;99.90;;;;;;4984286;28;40209;-77
2021/12/11 06:00:33;;;;;;;19.67;2.80;;;7.90;99.90;;;;;;4963887;28;47043;-78
2021/12/11 06:03:00;;;;;;;34.43;4.40;;;7.90;99.90;;;;;;4970496;28;38924;-78
2021/12/11 06:05:27;;;;;;;25.13;3.30;;;7.90;99.90;;;;;;4988802;28;47466;-77
2021/12/11 06:07:53;;;;;;;16.20;2.83;;;8.10;99.90;;;;;;4969960;28;37834;-78
2021/12/11 06:10:22;;;;;;;20.57;2.63;;;8.20;99.90;;;;;;4985730;28;38297;-78
2021/12/11 06:12:50;;;;;;;27.47;3.10;;;8.20;99.90;;;;;;4968104;28;38477;-79
2021/12/11 06:15:16;;;;;;;25.83;3.10;;;8.20;99.90;;;;;;4963825;28;39788;-78
2021/12/11 06:17:44;;;;;;;20.67;3.00;;;8.30;99.90;;;;;;4979004;28;39435;-78
2021/12/11 06:20:13;;;;;;;20.57;2.83;;;8.30;99.90;;;;;;4980813;28;41009;-78
2021/12/11 06:22:40;;;;;;;23.57;2.60;;;8.40;99.90;;;;;;4980894;28;38155;-78
2021/12/11 06:25:20;;;;;;;27.57;5.03;;;8.60;99.90;;;;;;4963427;28;37184;-78
2021/12/11 06:27:46;;;;;;;20.93;3.10;;;8.60;99.90;;;;;;4979390;28;39720;-78
2021/12/11 06:30:14;;;;;;;18.93;2.30;;;8.70;99.90;;;;;;4978741;28;39430;-78
2021/12/11 06:32:42;;;;;;;21.67;3.07;;;8.80;99.90;;;;;;4981219;28;37136;-78
2021/12/11 06:35:25;;;;;;;20.97;2.67;;;8.90;99.90;;;;;;4977404;28;36894;-78
2021/12/11 06:37:52;;;;;;;25.67;3.47;;;8.90;99.90;;;;;;4980928;28;38384;-78
2021/12/11 06:40:19;;;;;;;15.77;2.50;;;8.80;99.90;;;;;;4964591;28;37392;-78
2021/12/11 06:42:45;;;;;;;25.17;3.10;;;8.80;99.90;;;;;;4966002;28;38870;-79
2021/12/11 06:45:11;;;;;;;22.63;2.73;;;8.80;99.90;;;;;;4982140;28;37329;-78
2021/12/11 06:47:38;;;;;;;21.37;2.60;;;8.80;99.90;;;;;;4980957;28;39420;-78
2021/12/11 06:50:06;;;;;;;17.47;1.83;;;8.80;99.90;;;;;;4958836;28;39616;-77
2021/12/11 06:52:32;;;;;;;16.63;3.30;;;8.80;99.90;;;;;;4958868;28;38734;-79
2021/12/11 06:54:58;;;;;;;14.27;2.73;;;8.70;99.90;;;;;;4958011;28;38116;-79
2021/12/11 06:57:25;;;;;;;12.93;1.97;;;8.70;99.90;;;;;;4958620;28;39398;-78
2021/12/11 06:59:51;;;;;;;12.77;1.83;;;8.60;99.90;;;;;;4958827;28;38120;-78
2021/12/11 07:02:19;;;;;;;12.43;1.80;;;8.60;99.90;;;;;;4970955;28;37157;-78
2021/12/11 07:04:46;;;;;;;16.67;2.10;;;8.70;99.90;;;;;;4972964;28;37497;-79
2021/12/11 07:07:19;;;;;;;12.93;2.20;;;8.70;99.90;;;;;;4956791;28;38851;-76
2021/12/11 07:09:45;;;;;;;15.60;2.17;;;8.70;99.90;;;;;;4967970;28;38635;-78
2021/12/11 07:12:11;;;;;;;16.23;2.63;;;8.60;99.90;;;;;;4964824;28;38403;-78
2021/12/11 07:14:38;;;;;;;11.10;1.47;;;8.60;99.90;;;;;;4970244;28;37328;-78
2021/12/11 07:17:04;;;;;;;13.30;2.07;;;8.60;99.90;;;;;;4966355;28;39679;-80
2021/12/11 07:19:31;;;;;;;15.47;1.33;;;8.50;99.90;;;;;;4969142;28;38688;-78
2021/12/11 07:21:57;;;;;;;8.93;1.57;;;8.50;99.90;;;;;;4973307;28;37740;-78
2021/12/11 07:24:32;;;;;;;7.73;1.37;;;8.50;99.90;;;;;;4967633;28;38040;-79
2021/12/11 07:27:03;;;;;;;9.13;1.37;;;8.60;99.90;;;;;;4963489;28;40089;-79
2021/12/11 07:29:31;;;;;;;12.97;1.30;;;8.50;99.90;;;;;;4966431;28;48377;-78
2021/12/11 07:31:57;;;;;;;5.03;1.00;;;8.50;99.90;;;;;;4972813;28;37947;-79
2021/12/11 07:34:24;;;;;;;11.83;2.33;;;8.30;99.90;;;;;;4966462;28;37798;-78
2021/12/11 07:36:55;;;;;;;9.27;1.67;;;8.30;99.90;;;;;;4961655;28;38977;-79
2021/12/11 07:39:22;;;;;;;11.37;1.70;;;8.30;99.90;;;;;;4960359;28;38911;-78
2021/12/11 07:41:49;;;;;;;13.40;1.87;;;8.30;99.90;;;;;;4967955;28;38475;-79
2021/12/11 07:44:16;;;;;;;8.60;1.40;;;8.40;99.90;;;;;;4975011;28;38008;-78
2021/12/11 07:46:43;;;;;;;9.10;1.67;;;8.40;99.90;;;;;;4981109;28;39029;-79
2021/12/11 07:49:09;;;;;;;11.03;2.90;;;8.30;99.90;;;;;;4970937;28;39430;-80
2021/12/11 07:51:38;;;;;;;10.07;1.87;;;8.30;99.90;;;;;;4989274;28;39656;-80
2021/12/11 07:54:06;;;;;;;14.13;1.87;;;8.30;99.90;;;;;;4970706;28;37753;-78
2021/12/11 07:56:33;;;;;;;13.60;2.17;;;8.30;99.90;;;;;;4994381;28;40010;-79
2021/12/11 07:59:03;;;;;;;13.53;1.50;;;8.40;99.90;;;;;;4996130;28;38503;-79
2021/12/11 08:01:33;;;;;;;18.43;2.70;;;8.40;99.90;;;;;;4990527;28;46996;-79
2021/12/11 08:04:01;;;;;;;17.07;2.37;;;8.50;99.90;;;;;;4995076;28;38152;-79
2021/12/11 08:06:29;;;;;;;11.13;1.70;;;8.50;99.90;;;;;;4982119;28;47841;-79
2021/12/11 08:08:56;;;;;;;13.93;1.50;;;8.60;99.90;;;;;;4987429;28;39268;-79
2021/12/11 08:11:25;;;;;;;15.80;1.57;;;8.50;99.90;;;;;;4987888;28;38386;-79
2021/12/11 08:13:51;;;;;;;16.77;2.77;;;8.50;99.90;;;;;;4996999;28;36103;-78
2021/12/11 08:16:24;;;;;;;10.00;1.60;;;8.50;99.90;;;;;;4974731;28;39645;-79
2021/12/11 08:18:52;;;;;;;7.05;1.65;;;8.50;99.90;;;;;;4979801;28;37781;-79
2021/12/11 08:21:20;;;;;;;16.43;2.13;;;8.60;99.90;;;;;;4981642;28;36615;-78
2021/12/11 08:23:48;;;;;;;14.03;2.73;;;8.60;99.90;;;;;;4976671;28;37850;-80
2021/12/11 08:26:20;;;;;;;13.00;1.93;;;8.70;99.90;;;;;;4998260;28;40114;-80
2021/12/11 08:28:48;;;;;;;8.77;2.10;;;8.70;99.90;;;;;;5010148;28;39086;-81
2021/12/11 08:31:15;;;;;;;10.33;2.20;;;8.70;99.90;;;;;;4983036;28;37576;-79
2021/12/11 08:33:42;;;;;;;10.43;1.83;;;8.60;99.90;;;;;;4989941;28;37203;-78
2021/12/11 08:36:09;;;;;;;12.57;1.90;;;8.60;99.90;;;;;;4990318;28;38980;-78
2021/12/11 08:38:36;;;;;;;10.27;2.00;;;8.50;99.90;;;;;;4994213;28;38175;-78
2021/12/11 08:41:06;;;;;;;7.23;1.30;;;8.50;99.90;;;;;;4991730;28;37915;-78
2021/12/11 08:43:32;;;;;;;12.77;1.80;;;8.50;99.90;;;;;;4988624;28;37041;-78
2021/12/11 08:48:37;;;;;;;10.43;1.50;;;8.40;99.90;;;;;;4987433;28;49026;-78
2021/12/11 08:51:09;;;;;;;12.87;1.87;;;8.40;99.90;;;;;;4987572;28;38169;-78
2021/12/11 08:53:36;;;;;;;9.02;1.77;;;8.40;99.90;;;;;;4972451;28;40054;-78
2021/12/11 08:56:06;;;;;;;9.93;1.47;;;8.50;99.90;;;;;;4974862;28;40843;-77
2021/12/11 08:58:32;;;;;;;9.27;1.27;;;8.50;99.90;;;;;;4980280;28;37468;-78
2021/12/11 09:01:31;;;;;;;8.63;1.47;;;8.50;99.90;;;;;;4971923;28;39322;-78
2021/12/11 09:04:00;;;;;;;9.37;1.90;;;8.50;99.90;;;;;;4985357;28;48239;-79
2021/12/11 09:06:45;;;;;;;16.93;2.53;;;8.50;99.90;;;;;;4987658;28;38439;-77
2021/12/11 09:09:19;;;;;;;11.07;1.90;;;8.50;99.90;;;;;;4972514;28;38786;-78
2021/12/11 09:11:54;;;;;;;11.67;1.70;;;8.60;99.90;;;;;;4976810;28;38791;-77
2021/12/11 09:14:31;;;;;;;18.80;2.47;;;8.50;99.90;;;;;;4975788;28;38191;-78
2021/12/11 09:17:22;;;;;;;13.27;2.07;;;8.40;99.90;;;;;;4986601;28;38980;-77
2021/12/11 09:20:07;;;;;;;11.70;2.77;;;8.30;99.90;;;;;;4969344;28;47113;-78
2021/12/11 09:22:42;;;;;;;9.67;2.10;;;8.20;99.90;;;;;;4959934;28;47015;-77
2021/12/11 09:25:35;;;;;;;7.10;2.07;;;8.20;99.90;;;;;;4949564;28;37412;-77
2021/12/11 09:28:11;;;;;;;9.65;2.20;;;8.30;99.90;;;;;;4977739;28;39396;-75
2021/12/11 09:30:47;;;;;;;7.67;2.50;;;8.30;99.90;;;;;;4980684;28;38460;-77
2021/12/11 09:33:17;;;;;;;14.23;3.17;;;8.40;99.90;;;;;;4969772;28;37230;-77
2021/12/11 09:35:52;;;;;;;12.47;2.90;;;8.60;99.90;;;;;;4989170;28;38630;-78
2021/12/11 09:38:35;;;;;;;9.97;2.73;;;8.70;99.90;;;;;;4985444;28;39640;-78
2021/12/11 09:41:20;;;;;;;7.60;2.83;;;8.70;99.90;;;;;;4973344;28;39381;-78
2021/12/11 09:44:09;;;;;;;14.40;3.40;;;8.70;99.90;;;;;;4986377;28;48099;-77
2021/12/11 09:47:05;;;;;;;9.23;2.47;;;8.60;99.90;;;;;;4973574;28;47193;-77
2021/12/11 09:49:35;;;;;;;9.73;2.87;;;8.70;99.90;;;;;;4965573;28;47155;-77
2021/12/11 09:52:16;;;;;;;11.03;2.83;;;8.80;99.90;;;;;;4972403;28;38253;-77
2021/12/11 09:54:46;;;;;;;16.07;3.73;;;8.90;99.90;;;;;;4968892;28;47104;-78
2021/12/11 09:57:15;;;;;;;12.00;3.10;;;8.90;99.90;;;;;;4963950;28;35689;-78
2021/12/11 09:59:44;;;;;;;19.03;3.20;;;8.90;99.90;;;;;;4969172;28;40790;-79
2021/12/11 10:02:25;;;;;;;11.77;3.07;;;9.00;99.90;;;;;;4965968;28;38572;-77
2021/12/11 10:05:03;;;;;;;16.03;3.00;;;9.10;99.90;;;;;;4987856;28;36822;-77
2021/12/11 10:07:37;;;;;;;18.13;3.20;;;8.90;99.90;;;;;;4983753;28;46681;-77
2021/12/11 10:10:17;;;;;;;9.07;2.40;;;8.90;99.90;;;;;;4969345;28;38850;-78
2021/12/11 10:12:49;;;;;;;12.77;2.50;;;8.90;99.90;;;;;;4957433;28;47031;-79
2021/12/11 10:15:30;;;;;;;13.43;2.77;;;8.90;99.90;;;;;;4968070;28;38255;-79
2021/12/11 10:18:06;;;;;;;8.53;2.50;;;8.90;99.90;;;;;;4975802;28;37709;-80
2021/12/11 10:20:43;;;;;;;11.33;2.50;;;8.90;99.90;;;;;;4983571;28;47088;-79
2021/12/11 10:23:13;;;;;;;16.97;2.77;;;8.90;99.90;;;;;;4981430;28;39236;-76
2021/12/11 10:25:43;;;;;;;18.03;2.83;;;9.00;99.90;;;;;;4973915;28;38266;-81
2021/12/11 10:28:12;;;;;;;20.23;2.70;;;9.10;99.90;;;;;;4974880;28;37755;-79
2021/12/11 10:30:44;;;;;;;21.87;5.63;;;9.30;99.90;;;;;;4979607;28;37693;-78
2021/12/11 10:33:13;;;;;;;19.60;3.38;;;9.40;99.90;;;;;;4970882;28;38519;-78
2021/12/11 10:35:43;;;;;;;18.83;3.17;;;9.30;99.90;;;;;;4969811;28;38604;-78
2021/12/11 10:38:10;;;;;;;21.00;3.03;;;9.30;99.90;;;;;;4972283;28;37209;-78
2021/12/11 10:40:42;;;;;;;14.93;2.63;;;9.20;99.90;;;;;;4986691;28;39794;-77
2021/12/11 10:43:15;;;;;;;18.97;2.83;;;9.00;99.90;;;;;;4949863;28;38318;-78
2021/12/11 10:45:42;;;;;;;21.73;3.60;;;8.90;99.90;;;;;;4958555;28;38415;-77
2021/12/11 10:48:12;;;;;;;21.00;3.00;;;8.90;99.90;;;;;;4959728;28;38888;-77
2021/12/11 10:50:46;;;;;;;10.63;2.70;;;8.90;99.90;;;;;;4965054;28;37807;-78
2021/12/11 10:53:17;;;;;;;16.47;3.23;;;8.90;99.90;;;;;;4971651;28;39626;-78
2021/12/11 10:55:43;;;;;;;18.17;3.67;;;8.90;99.90;;;;;;4971263;28;38386;-79
2021/12/11 10:58:15;;;;;;;13.97;2.63;;;8.90;99.90;;;;;;4968325;28;37471;-77
2021/12/11 11:00:48;;;;;;;17.23;2.70;;;8.90;99.90;;;;;;4982939;28;39792;-77
2021/12/11 11:03:16;;;;;;;18.80;2.90;;;8.90;99.90;;;;;;4970306;28;38689;-77
2021/12/11 11:05:43;;;;;;;20.77;4.00;;;8.80;99.90;;;;;;4986355;28;35927;-77
2021/12/11 11:08:10;;;;;;;16.33;2.83;;;8.70;99.90;;;;;;4979704;28;37466;-77
2021/12/11 11:10:41;;;;;;;19.23;3.83;;;8.70;99.90;;;;;;4963431;28;40053;-76
2021/12/11 11:13:11;;;;;;;15.23;3.43;;;8.70;99.90;;;;;;4970736;28;38769;-76
2021/12/11 11:15:38;;;;;;;13.83;2.87;;;8.80;99.90;;;;;;4959912;28;37934;-77
2021/12/11 11:18:07;;;;;;;17.53;2.80;;;8.90;99.90;;;;;;4972044;28;37142;-76
2021/12/11 11:20:38;;;;;;;16.43;3.93;;;8.90;99.90;;;;;;4968934;28;39273;-77
2021/12/11 11:23:06;;;;;;;17.80;3.37;;;8.90;99.90;;;;;;4970668;28;38633;-76
2021/12/11 11:25:40;;;;;;;19.10;3.20;;;8.90;99.90;;;;;;4955767;28;38825;-76
2021/12/11 11:28:10;;;;;;;15.60;3.93;;;9.00;99.90;;;;;;4970073;28;38058;-76
2021/12/11 11:30:44;;;;;;;17.53;3.40;;;9.00;99.90;;;;;;4988255;28;40596;-77
2021/12/11 11:33:18;;;;;;;12.23;2.83;;;9.10;99.90;;;;;;4970391;28;39541;-77
2021/12/11 11:35:47;;;;;;;11.00;2.10;;;9.20;99.90;;;;;;4979351;28;37830;-78
2021/12/11 11:38:17;;;;;;;14.67;3.37;;;9.30;99.90;;;;;;4962966;28;37415;-77
2021/12/11 11:40:49;;;;;;;14.03;3.10;;;9.30;99.90;;;;;;4963603;28;42118;-79
2021/12/11 11:43:16;;;;;;;12.83;2.50;;;9.40;99.90;;;;;;4972234;28;38877;-78
2021/12/11 11:45:43;;;;;;;14.73;3.20;;;9.50;99.90;;;;;;4969848;28;37259;-78
2021/12/11 11:48:10;;;;;;;13.90;2.50;;;9.50;99.90;;;;;;4972243;28;37905;-78
2021/12/11 11:50:40;;;;;;;15.93;2.30;;;9.50;99.90;;;;;;4971901;28;39388;-78
2021/12/11 11:53:08;;;;;;;12.13;2.50;;;9.40;99.90;;;;;;4975605;28;39061;-77
2021/12/11 11:55:43;;;;;;;17.57;3.37;;;9.40;99.90;;;;;;4976631;28;37096;-78
2021/12/11 11:58:09;;;;;;;12.53;2.40;;;9.50;99.90;;;;;;4955269;28;40188;-76
2021/12/11 12:00:47;;;;;;;14.47;2.73;;;9.60;99.90;;;;;;4956221;28;37347;-76
2021/12/11 12:03:17;;;;;;;14.33;2.67;;;9.60;99.90;;;;;;4971340;28;37572;-76
2021/12/11 12:05:51;;;;;;;22.57;5.23;;;9.70;99.90;;;;;;4983854;28;37114;-76
2021/12/11 12:08:18;;;;;;;13.23;2.53;;;9.70;99.90;;;;;;4956268;28;38712;-75
2021/12/11 12:10:51;;;;;;;11.03;2.57;;;9.60;99.90;;;;;;4980041;28;38469;-76
2021/12/11 12:13:22;;;;;;;19.27;2.90;;;9.50;99.90;;;;;;4978641;28;39632;-76
2021/12/11 12:15:53;;;;;;;16.43;2.73;;;9.40;99.90;;;;;;4977402;28;37097;-76
2021/12/11 12:18:21;;;;;;;13.20;2.73;;;9.30;99.90;;;;;;4972258;28;36347;-76
2021/12/11 12:20:51;;;;;;;15.87;2.97;;;9.20;99.90;;;;;;4970325;28;40495;-76
2021/12/11 12:23:19;;;;;;;16.10;3.30;;;9.10;99.90;;;;;;4971534;28;38351;-76
2021/12/11 12:25:47;;;;;;;16.43;3.13;;;9.10;99.90;;;;;;4954774;28;38514;-78
2021/12/11 12:28:13;;;;;;;18.53;3.23;;;9.10;99.90;;;;;;4971339;28;37828;-78
2021/12/11 12:30:43;;;;;;;16.93;3.30;;;9.10;99.90;;;;;;4975933;28;38518;-78
2021/12/11 12:33:11;;;;;;;17.10;3.50;;;9.10;99.90;;;;;;4980596;28;38016;-78
2021/12/11 12:35:38;;;;;;;19.30;3.43;;;9.10;99.90;;;;;;4956098;28;38179;-79
2021/12/11 12:38:09;;;;;;;13.60;3.13;;;9.10;99.90;;;;;;4953795;28;37915;-78
2021/12/11 12:40:55;;;;;;;16.83;3.37;;;9.10;99.90;;;;;;4973028;28;38962;-78
2021/12/11 12:46:35;;;;;;;11.17;2.57;;;9.00;99.90;;;;;;4970730;28;38609;-78
2021/12/11 12:49:03;;;;;;;11.57;2.80;;;9.00;99.90;;;;;;4987799;28;38490;-75
2021/12/11 12:51:30;;;;;;;19.50;2.80;;;8.90;99.90;;;;;;4979266;28;39771;-78
2021/12/11 12:53:58;;;;;;;19.17;3.50;;;8.80;99.90;;;;;;4990788;28;39354;-78
2021/12/11 12:56:29;;;;;;;17.77;3.63;;;8.80;99.90;;;;;;4980217;28;38928;-77
2021/12/11 12:59:06;;;;;;;15.10;2.83;;;8.70;99.90;;;;;;4991383;28;37241;-78
2021/12/11 13:01:38;;;;;;;14.70;2.43;;;8.70;99.90;;;;;;4969220;28;47153;-79
2021/12/11 13:04:06;;;;;;;10.30;2.42;;;8.70;99.90;;;;;;4972296;28;39358;-77
2021/12/11 13:06:38;;;;;;;10.57;2.30;;;8.80;99.90;;;;;;4997970;28;38244;-78
2021/12/11 13:09:14;;;;;;;14.23;2.50;;;8.80;99.90;;;;;;4990187;28;38153;-78
2021/12/11 13:11:50;;;;;;;10.33;2.30;;;8.80;99.90;;;;;;4971822;28;39586;-78
2021/12/11 13:14:16;;;;;;;16.40;2.73;;;8.90;99.90;;;;;;4987016;28;39396;-77
2021/12/11 13:16:45;;;;;;;14.33;3.97;;;8.90;99.90;;;;;;4969998;28;39936;-77
2021/12/11 13:19:21;;;;;;;14.77;3.00;;;8.80;99.90;;;;;;4970954;28;38653;-78
2021/12/11 13:21:54;;;;;;;10.87;2.73;;;8.80;99.90;;;;;;4986135;28;39493;-78
2021/12/11 13:24:21;;;;;;;13.33;2.60;;;8.70;99.90;;;;;;4970760;28;39276;-78
2021/12/11 13:26:52;;;;;;;15.07;3.83;;;8.70;99.90;;;;;;4981294;28;38862;-78
2021/12/11 13:29:21;;;;;;;9.87;2.30;;;8.70;99.90;;;;;;4989077;28;37231;-78